Terminal Aerodrome Forecast
Issued by NWS North Platte, NE

Home | Current Version | Previous Version | Text Only | Print | Product List | Glossary On
Versions: 1 2 3 4 5 6 7 8 9 10 11 12 13 14 15 16 17 18
987
FTUS43 KLBF 051726
TAFLBF
TAF
KLBF 051726Z 0518/0618 18010KT P6SM SCT200
      TEMPO 0520/0523 18011G18KT
     FM060200 15006KT P6SM SKC=

USA.gov is the U.S. government's official web portal to all federal, state and local government web resources and services.